»·PEaware :: N7998J KSBP-KGPI

N7998J :: KSBP-KGPI

FLIGHT INFORMATION

Flight Status: Arrived
Operator: Privately registered:
United States
More flights under this callsign
Pilot: Anonymous 27634 (27634)
Aircraft: SOCATA TBM-900
(TBM9)
More flights by this aircraft type
Origin: KSBP San Luis Co Regl
United States
Destination: KGPI Glacier Park Intl
United States
More flights between these airports :: More routes between these airports
Route: +
File this flight plan on PilotEdge
Remarks:
Altitude:
(Current/Filed)
16,500ft
Speed:
(Current/Filed)
0kts
Departed: 05-Feb-20 11:43 AM
Arrived: 05-Feb-20 01:55 PM
Distance/Time
Traveled:
835nm/2:12
Distance/Time
To Go:
Arrived

Flight Plot

Page will automatically refresh every two minutes.

Flight plan parsing failed; only flown route is shown


Map Options




Map Legend


Flown Route
Filed Route
Departure Airport
Arrival Airport
Navaid (VOR, NDB)
Fix

Horizontal Profiles

Position Reports

Time Latitude Longitude Heading Altitude Ground
Speed
05-Feb-20 11:41 40.925131 -121.302007 353 16486ft 244kts
05-Feb-20 11:42 40.992823 -121.288281 24 16499ft 250kts
05-Feb-20 11:43 41.053041 -121.239625 24 16506ft 250kts
05-Feb-20 11:44 41.111476 -121.191263 23 16521ft 249kts
05-Feb-20 11:45 41.170950 -121.141955 23 16522ft 249kts
05-Feb-20 11:46 41.230513 -121.092395 23 16521ft 249kts
05-Feb-20 11:47 41.289313 -121.043364 23 16520ft 248kts
05-Feb-20 11:48 41.347812 -120.994475 23 16520ft 247kts
05-Feb-20 11:49 41.406020 -120.945724 23 16519ft 247kts
05-Feb-20 11:50 41.463918 -120.897128 23 16519ft 246kts
05-Feb-20 11:51 41.522011 -120.848266 23 16518ft 246kts
05-Feb-20 11:52 41.579844 -120.799520 23 16518ft 246kts
05-Feb-20 11:53 41.637683 -120.750659 23 16517ft 246kts
05-Feb-20 11:54 41.695608 -120.701623 23 16517ft 246kts
05-Feb-20 11:55 41.753560 -120.652460 23 16516ft 246kts
05-Feb-20 11:56 41.811321 -120.603351 23 16506ft 246kts
05-Feb-20 11:57 41.869036 -120.554173 23 16492ft 246kts
05-Feb-20 11:58 41.927139 -120.504556 23 16478ft 246kts
05-Feb-20 11:59 41.985192 -120.454874 23 16477ft 245kts
05-Feb-20 12:00 42.043139 -120.405174 23 16476ft 245kts
05-Feb-20 12:01 42.100623 -120.355764 23 16467ft 245kts
05-Feb-20 12:02 42.155093 -120.308824 23 17477ft 230kts
05-Feb-20 12:03 42.212643 -120.259204 23 17477ft 247kts
05-Feb-20 12:04 42.271053 -120.208653 23 17475ft 251kts
05-Feb-20 12:05 42.329891 -120.157630 23 17474ft 251kts
05-Feb-20 12:06 42.390022 -120.105372 23 17473ft 251kts
05-Feb-20 12:07 42.450374 -120.052800 23 17473ft 251kts
05-Feb-20 12:08 42.509883 -120.000842 23 17472ft 251kts
05-Feb-20 12:09 42.568646 -119.949420 23 17471ft 251kts
05-Feb-20 12:10 42.627286 -119.897990 23 17471ft 251kts
05-Feb-20 12:11 42.686019 -119.846359 23 17470ft 251kts
05-Feb-20 12:12 42.746547 -119.793027 23 17470ft 251kts
05-Feb-20 12:13 42.805729 -119.740759 23 17461ft 251kts
05-Feb-20 12:14 42.864598 -119.688650 23 17427ft 251kts
05-Feb-20 12:15 42.925410 -119.634651 23 17373ft 253kts
05-Feb-20 12:16 42.986539 -119.580276 22 17329ft 254kts
05-Feb-20 12:17 43.048759 -119.524810 21 17313ft 257kts
05-Feb-20 12:18 43.109997 -119.470114 21 17324ft 258kts
05-Feb-20 12:19 43.170589 -119.415836 21 17325ft 260kts
05-Feb-20 12:20 43.231061 -119.361524 21 17325ft 260kts
05-Feb-20 12:21 43.291030 -119.307524 21 17317ft 258kts
05-Feb-20 12:22 43.351091 -119.253332 21 17317ft 258kts
05-Feb-20 12:23 43.411271 -119.198894 21 17316ft 258kts
05-Feb-20 12:24 43.471291 -119.144448 21 17454ft 253kts
05-Feb-20 12:25 43.530327 -119.090821 21 17518ft 256kts
05-Feb-20 12:26 43.590739 -119.035770 21 17517ft 257kts
05-Feb-20 12:27 43.651797 -118.979995 21 17516ft 257kts
05-Feb-20 12:28 43.712530 -118.924384 21 17516ft 257kts
05-Feb-20 12:29 43.773416 -118.868490 21 17515ft 256kts
05-Feb-20 12:30 43.833647 -118.813070 21 17515ft 255kts
05-Feb-20 12:31 43.892981 -118.758343 21 17512ft 255kts
05-Feb-20 12:32 43.952018 -118.703755 21 17510ft 255kts
05-Feb-20 12:33 44.011210 -118.648886 21 17509ft 255kts
05-Feb-20 12:34 44.070167 -118.594104 21 17508ft 255kts
05-Feb-20 12:35 44.129031 -118.539283 21 17520ft 256kts
05-Feb-20 12:36 44.188368 -118.483881 21 17517ft 257kts
05-Feb-20 12:37 44.247702 -118.428336 21 17516ft 257kts
05-Feb-20 12:38 44.307039 -118.372656 21 17516ft 257kts
05-Feb-20 12:39 44.363556 -118.319487 21 17508ft 257kts
05-Feb-20 12:40 44.423813 -118.262674 21 17508ft 256kts
05-Feb-20 12:41 44.482855 -118.206861 21 17507ft 256kts
05-Feb-20 12:42 44.541894 -118.150901 21 17506ft 254kts
05-Feb-20 12:43 44.599787 -118.095897 21 17506ft 249kts
05-Feb-20 12:44 44.657022 -118.041403 21 17506ft 248kts
05-Feb-20 12:45 44.713942 -117.987025 21 17502ft 239kts
05-Feb-20 12:46 44.767966 -117.935343 20 17504ft 230kts
05-Feb-20 12:47 44.820720 -117.884769 20 17505ft 228kts
05-Feb-20 12:48 44.873323 -117.834213 20 17505ft 228kts
05-Feb-20 12:49 44.925570 -117.783881 20 17504ft 227kts
05-Feb-20 12:50 44.977900 -117.733355 20 17502ft 228kts
05-Feb-20 12:51 45.030690 -117.682281 20 17500ft 232kts
05-Feb-20 12:52 45.084425 -117.630172 20 17502ft 237kts
05-Feb-20 12:53 45.139203 -117.576923 21 17515ft 243kts
05-Feb-20 12:54 45.195318 -117.522221 21 17508ft 245kts
05-Feb-20 12:55 45.251677 -117.467152 21 17505ft 245kts
05-Feb-20 12:56 45.307759 -117.412223 21 17542ft 245kts
05-Feb-20 12:57 45.363929 -117.357082 21 17538ft 245kts
05-Feb-20 12:58 45.419953 -117.301939 22 17521ft 245kts
05-Feb-20 12:59 45.476057 -117.246587 22 17513ft 245kts
05-Feb-20 13:00 45.532036 -117.191223 22 17503ft 245kts
05-Feb-20 13:01 45.588252 -117.135491 22 17461ft 247kts
05-Feb-20 13:02 45.644702 -117.079380 22 17452ft 247kts
05-Feb-20 13:03 45.701234 -117.023047 22 17452ft 248kts
05-Feb-20 13:04 45.758023 -116.966319 22 17452ft 248kts
05-Feb-20 13:05 45.814706 -116.909551 22 17452ft 249kts
05-Feb-20 13:06 45.871441 -116.852589 22 17447ft 250kts
05-Feb-20 13:07 45.928452 -116.795201 22 17434ft 250kts
05-Feb-20 13:08 45.985323 -116.737804 22 17432ft 250kts
05-Feb-20 13:09 46.042198 -116.680259 22 17439ft 249kts
05-Feb-20 13:10 46.098947 -116.622693 22 17450ft 249kts
05-Feb-20 13:11 46.155913 -116.564773 22 17445ft 251kts
05-Feb-20 13:12 46.213043 -116.506517 22 17432ft 251kts
05-Feb-20 13:13 46.270344 -116.447940 22 17418ft 252kts
05-Feb-20 13:14 46.327544 -116.389313 22 17406ft 252kts
05-Feb-20 13:15 46.384623 -116.330652 22 17397ft 251kts
05-Feb-20 13:16 46.441591 -116.271956 22 17403ft 250kts
05-Feb-20 13:17 46.498439 -116.213233 22 17405ft 250kts
05-Feb-20 13:18 46.555203 -116.154447 22 17398ft 251kts
05-Feb-20 13:19 46.613428 -116.093983 23 17397ft 252kts
05-Feb-20 13:20 46.670841 -116.034198 23 17397ft 253kts
05-Feb-20 13:22 46.728477 -115.974023 23 17397ft 253kts
05-Feb-20 13:23 46.787032 -115.912723 23 17397ft 253kts
05-Feb-20 13:24 46.845261 -115.851590 22 17397ft 251kts
05-Feb-20 13:25 46.904356 -115.789388 22 17397ft 251kts
05-Feb-20 13:26 46.964483 -115.725928 23 17397ft 252kts
05-Feb-20 13:27 47.024144 -115.662773 23 17397ft 253kts
05-Feb-20 13:28 47.082536 -115.600782 23 17398ft 254kts
05-Feb-20 13:29 47.140587 -115.538993 23 17407ft 255kts
05-Feb-20 13:30 47.201223 -115.474370 24 16463ft 277kts
05-Feb-20 13:31 47.262718 -115.408466 25 15400ft 271kts
05-Feb-20 13:32 47.321976 -115.344833 26 14567ft 267kts
05-Feb-20 13:33 47.381950 -115.280231 26 13856ft 261kts
05-Feb-20 13:34 47.440323 -115.217202 27 13378ft 257kts
05-Feb-20 13:35 47.496790 -115.156023 26 13364ft 248kts
05-Feb-20 13:36 47.552834 -115.095193 26 13361ft 248kts
05-Feb-20 13:37 47.609564 -115.033436 26 13361ft 250kts
05-Feb-20 13:38 47.646286 -114.993359 26 13361ft 250kts
05-Feb-20 13:39 47.684043 -114.952077 26 13361ft 246kts
05-Feb-20 13:40 47.738932 -114.891949 26 13362ft 245kts
05-Feb-20 13:41 47.793913 -114.831552 26 13362ft 245kts
05-Feb-20 13:41 47.839710 -114.781116 26 13363ft 245kts
05-Feb-20 13:42 47.894451 -114.720682 26 13363ft 245kts
05-Feb-20 13:44 47.959405 -114.648818 27 12571ft 256kts
05-Feb-20 13:44 48.003466 -114.599847 27 11390ft 223kts
05-Feb-20 13:45 48.050784 -114.547206 28 10357ft 204kts
05-Feb-20 13:47 48.103231 -114.488725 29 9248ft 209kts
05-Feb-20 13:47 48.141815 -114.445545 30 8430ft 196kts
05-Feb-20 13:48 48.178555 -114.404465 31 7489ft 189kts
05-Feb-20 13:49 48.218908 -114.359116 32 6455ft 164kts
05-Feb-20 13:50 48.255312 -114.315972 31 4849ft 155kts
05-Feb-20 13:51 48.286113 -114.285975 27 3973ft 116kts
05-Feb-20 13:52 48.312716 -114.261163 28 3622ft 98kts
05-Feb-20 13:53 48.322765 -114.242864 210 3206ft 84kts
05-Feb-20 13:54 48.310730 -114.255248 213 2980ft 19kts
05-Feb-20 13:55 48.306282 -114.258645 125 2980ft 0kts
05-Feb-20 13:56 48.306211 -114.257950 58 2980ft 9kts
05-Feb-20 13:57 48.310403 -114.253508 36 2980ft 15kts
05-Feb-20 13:58 48.312101 -114.251744 34 2980ft 0kts
05-Feb-20 13:59 48.314284 -114.249476 36 2980ft 17kts
05-Feb-20 14:00 48.315714 -114.246053 36 2980ft 12kts
05-Feb-20 14:01 48.317193 -114.244321 294 2980ft 2kts
05-Feb-20 14:02 48.317194 -114.244324 295 2980ft 0kts
05-Feb-20 14:03 48.317194 -114.244324 295 2980ft 0kts
05-Feb-20 14:04 48.317194 -114.244324 294 2980ft 0kts

Navigation Log

Ident Type
Flight plan parsing failed, navigation log unavailable